Terminal Aerodrome Forecast
Issued by NWS

Home | Current Version | Previous Version | Text Only | Print | Product List | Glossary Off
Versions: 1 2 3 4 5 6 7 8 9 10 11 12 13 14 15 16

466
FTUS43 KMPX 240520
TAFRNH
TAF
KRNH 240520Z 2406/2506 14004KT P6SM FEW060 SCT250
     FM241700 18012G20KT P6SM SCT060 SCT150
     FM250000 18008KT P6SM SCT060 SCT150 PROB30 2500/2506 -TSRA
      BKN050CB=

USA.gov is the U.S. government's official web portal to all federal, state and local government web resources and services.